Kezdőlap
METAR-TAF:

METAR-TAF

Repülőterek :

Guilin, Kína

földrajzi szélesség: 25-20N, földrajzi hosszúság: 110-18E, magasság: 166 m

Jelenlegi meteorológiai megfigyelések

A jelentés 35 perccel ezelõtt készült, 18:00 UTC
Délkeleti szél 4 kt
Hőmérséklet 26°C
Páratartalom 79%
Légköri nyomás 1008 hPa
Látótávolság 10 km, vagy több
Szórványos felhőzet 6600 lábon

METAR: ZGKL 221800Z 14002MPS 9999 SCT066 26/22 Q1008 NOSIG

Idő: 02:35 (18:35 UTC)

Előrejelzés

A jelentés 3 órával és 24 perccel ezelõtt készült, 15:11 UTC
Az előrejelzés 22-én 18 óra UTC és 23-én 18 óra UTC között érvényes
Északkeleti szél 6 kt
Látótávolság 10 km, vagy több
Szórványos felhőzet 3300 lábon
Szórványos felhőzet 6000 lábon
23-én 08 óra UTC és 23-én 12 óra UTC között ideiglenes
Kevés felhő 3300 lábon, Cumulonimbus.
Szakadozott felhőzet 5000 lábon
zivatar

TAF: ZGKL 221511Z 2218/2318 05003MPS 9999 SCT033 SCT060 TX37/2308Z TN25/2222Z TEMPO 2308/2312 TS FEW033CB BKN050

Meteorológiai megfigyelések és előrejelzések több, mint 4000 repülőtéren (METAR és TAF jelentéseket).

A térképen piros és sárga pontok jelzik az elérhető meteorológiai állomásokat.

Mozgassa az egeret a pont fölött, hogy megjelenjen az állomás neve.

Azután kattintson az időjárási megfigyelések és előrejelzések megtekintéséhez.

A térkép megváltoztatása: kattintson a fekete keresztel jelölt zöld gombra ráközelítéshez, a vonallal jelölt zöld gombra távolításhoz, vagy a zöld nyilakra a szomszédos térképek eléréséhez.


METAR-TAF: